sensor_id;sensor_type;location;lat;lon;timestamp;temperature;humidity
57652;DHT22;43480;53.116;6.734;2023-04-10T00:02:16;7.50;99.90
57652;DHT22;43480;53.116;6.734;2023-04-10T00:04:41;7.50;99.90
57652;DHT22;43480;53.116;6.734;2023-04-10T00:07:07;7.40;99.90
57652;DHT22;43480;53.116;6.734;2023-04-10T00:09:32;7.30;99.90
57652;DHT22;43480;53.116;6.734;2023-04-10T00:11:58;7.30;99.90
57652;DHT22;43480;53.116;6.734;2023-04-10T00:14:24;7.20;99.90
57652;DHT22;43480;53.116;6.734;2023-04-10T00:16:49;7.10;99.90
57652;DHT22;43480;53.116;6.734;2023-04-10T00:19:15;7.10;99.90
57652;DHT22;43480;53.116;6.734;2023-04-10T00:21:41;7.00;99.90
57652;DHT22;43480;53.116;6.734;2023-04-10T00:24:06;7.00;99.90
57652;DHT22;43480;53.116;6.734;2023-04-10T00:26:32;6.90;99.90
57652;DHT22;43480;53.116;6.734;2023-04-10T00:28:58;6.90;99.90
57652;DHT22;43480;53.116;6.734;2023-04-10T00:31:23;6.80;99.90
57652;DHT22;43480;53.116;6.734;2023-04-10T00:33:49;6.80;99.90
57652;DHT22;43480;53.116;6.734;2023-04-10T00:36:16;6.80;99.90
57652;DHT22;43480;53.116;6.734;2023-04-10T00:38:42;6.80;99.90
57652;DHT22;43480;53.116;6.734;2023-04-10T00:41:08;6.70;99.90
57652;DHT22;43480;53.116;6.734;2023-04-10T00:43:33;6.70;99.90
57652;DHT22;43480;53.116;6.734;2023-04-10T00:45:59;6.70;99.90
57652;DHT22;43480;53.116;6.734;2023-04-10T00:48:25;6.60;99.90
57652;DHT22;43480;53.116;6.734;2023-04-10T00:50:50;6.60;99.90
57652;DHT22;43480;53.116;6.734;2023-04-10T00:53:16;6.60;99.90
57652;DHT22;43480;53.116;6.734;2023-04-10T00:55:42;6.60;99.90
57652;DHT22;43480;53.116;6.734;2023-04-10T00:58:07;6.60;99.90
57652;DHT22;43480;53.116;6.734;2023-04-10T01:00:37;6.60;99.90
57652;DHT22;43480;53.116;6.734;2023-04-10T01:03:03;6.60;99.90
57652;DHT22;43480;53.116;6.734;2023-04-10T01:05:30;6.60;99.90
57652;DHT22;43480;53.116;6.734;2023-04-10T01:08:01;6.60;99.90
57652;DHT22;43480;53.116;6.734;2023-04-10T01:10:35;6.60;99.90
57652;DHT22;43480;53.116;6.734;2023-04-10T01:13:15;6.60;99.90
57652;DHT22;43480;53.116;6.734;2023-04-10T01:15:54;6.60;99.90
57652;DHT22;43480;53.116;6.734;2023-04-10T01:18:27;6.60;99.90
57652;DHT22;43480;53.116;6.734;2023-04-10T01:20:54;6.60;99.90
57652;DHT22;43480;53.116;6.734;2023-04-10T01:23:37;6.50;99.90
57652;DHT22;43480;53.116;6.734;2023-04-10T01:26:07;6.50;99.90
57652;DHT22;43480;53.116;6.734;2023-04-10T01:29:07;6.50;99.90
57652;DHT22;43480;53.116;6.734;2023-04-10T01:31:29;6.50;99.90
57652;DHT22;43480;53.116;6.734;2023-04-10T01:33:57;6.40;99.90
57652;DHT22;43480;53.116;6.734;2023-04-10T01:36:24;6.40;99.90
57652;DHT22;43480;53.116;6.734;2023-04-10T01:38:52;6.40;99.90
57652;DHT22;43480;53.116;6.734;2023-04-10T01:41:18;6.40;99.90
57652;DHT22;43480;53.116;6.734;2023-04-10T01:43:46;6.40;99.90
57652;DHT22;43480;53.116;6.734;2023-04-10T01:46:13;6.50;99.90
57652;DHT22;43480;53.116;6.734;2023-04-10T01:48:39;6.50;99.90
57652;DHT22;43480;53.116;6.734;2023-04-10T01:51:05;6.50;99.90
57652;DHT22;43480;53.116;6.734;2023-04-10T01:53:32;6.50;99.90
57652;DHT22;43480;53.116;6.734;2023-04-10T01:55:57;6.60;99.90
57652;DHT22;43480;53.116;6.734;2023-04-10T01:58:23;6.60;99.90
57652;DHT22;43480;53.116;6.734;2023-04-10T02:00:49;6.60;99.90
57652;DHT22;43480;53.116;6.734;2023-04-10T02:03:14;6.60;99.90
57652;DHT22;43480;53.116;6.734;2023-04-10T02:08:26;6.60;99.90
57652;DHT22;43480;53.116;6.734;2023-04-10T02:10:57;6.60;99.90
57652;DHT22;43480;53.116;6.734;2023-04-10T02:13:26;6.70;99.90
57652;DHT22;43480;53.116;6.734;2023-04-10T02:15:54;6.70;99.90
57652;DHT22;43480;53.116;6.734;2023-04-10T02:18:21;6.60;99.90
57652;DHT22;43480;53.116;6.734;2023-04-10T02:20:47;6.60;99.90
57652;DHT22;43480;53.116;6.734;2023-04-10T02:23:14;6.60;99.90
57652;DHT22;43480;53.116;6.734;2023-04-10T02:25:40;6.50;99.90
57652;DHT22;43480;53.116;6.734;2023-04-10T02:28:06;6.50;99.90
57652;DHT22;43480;53.116;6.734;2023-04-10T02:30:31;6.50;99.90
57652;DHT22;43480;53.116;6.734;2023-04-10T02:32:57;6.40;99.90
57652;DHT22;43480;53.116;6.734;2023-04-10T02:35:23;6.40;99.90
57652;DHT22;43480;53.116;6.734;2023-04-10T02:37:48;6.30;99.90
57652;DHT22;43480;53.116;6.734;2023-04-10T02:40:15;6.30;99.90
57652;DHT22;43480;53.116;6.734;2023-04-10T02:42:40;6.30;99.90
57652;DHT22;43480;53.116;6.734;2023-04-10T02:45:07;6.30;99.90
57652;DHT22;43480;53.116;6.734;2023-04-10T02:47:33;6.30;99.90
57652;DHT22;43480;53.116;6.734;2023-04-10T02:49:58;6.30;99.90
57652;DHT22;43480;53.116;6.734;2023-04-10T02:52:23;6.30;99.90
57652;DHT22;43480;53.116;6.734;2023-04-10T02:54:49;6.30;99.90
57652;DHT22;43480;53.116;6.734;2023-04-10T02:57:15;6.40;99.90
57652;DHT22;43480;53.116;6.734;2023-04-10T02:59:40;6.30;99.90
57652;DHT22;43480;53.116;6.734;2023-04-10T03:02:06;6.40;99.90
57652;DHT22;43480;53.116;6.734;2023-04-10T03:04:32;6.30;99.90
57652;DHT22;43480;53.116;6.734;2023-04-10T03:06:58;6.30;99.90
57652;DHT22;43480;53.116;6.734;2023-04-10T03:09:23;6.20;99.90
57652;DHT22;43480;53.116;6.734;2023-04-10T03:11:49;6.20;99.90
57652;DHT22;43480;53.116;6.734;2023-04-10T03:14:15;6.20;99.90
57652;DHT22;43480;53.116;6.734;2023-04-10T03:16:41;6.20;99.90
57652;DHT22;43480;53.116;6.734;2023-04-10T03:19:06;6.20;99.90
57652;DHT22;43480;53.116;6.734;2023-04-10T03:21:32;6.20;99.90
57652;DHT22;43480;53.116;6.734;2023-04-10T03:23:58;6.20;99.90
57652;DHT22;43480;53.116;6.734;2023-04-10T03:26:23;6.20;99.90
57652;DHT22;43480;53.116;6.734;2023-04-10T03:28:49;6.10;99.90
57652;DHT22;43480;53.116;6.734;2023-04-10T03:31:15;6.10;99.90
57652;DHT22;43480;53.116;6.734;2023-04-10T03:33:40;6.10;99.90
57652;DHT22;43480;53.116;6.734;2023-04-10T03:36:06;6.10;99.90
57652;DHT22;43480;53.116;6.734;2023-04-10T03:38:32;6.10;99.90
57652;DHT22;43480;53.116;6.734;2023-04-10T03:40:57;6.10;99.90
57652;DHT22;43480;53.116;6.734;2023-04-10T03:43:23;6.10;99.90
57652;DHT22;43480;53.116;6.734;2023-04-10T03:45:49;6.00;99.90
57652;DHT22;43480;53.116;6.734;2023-04-10T03:48:14;6.00;99.90
57652;DHT22;43480;53.116;6.734;2023-04-10T03:50:42;6.00;99.90
57652;DHT22;43480;53.116;6.734;2023-04-10T03:53:07;5.90;99.90
57652;DHT22;43480;53.116;6.734;2023-04-10T03:55:33;5.80;99.90
57652;DHT22;43480;53.116;6.734;2023-04-10T03:57:59;5.80;99.90
57652;DHT22;43480;53.116;6.734;2023-04-10T04:00:25;5.80;99.90
57652;DHT22;43480;53.116;6.734;2023-04-10T04:02:51;5.80;99.90
57652;DHT22;43480;53.116;6.734;2023-04-10T04:05:18;5.80;99.90
57652;DHT22;43480;53.116;6.734;2023-04-10T04:07:43;5.80;99.90
57652;DHT22;43480;53.116;6.734;2023-04-10T04:10:09;5.70;99.90
57652;DHT22;43480;53.116;6.734;2023-04-10T04:12:35;5.70;99.90
57652;DHT22;43480;53.116;6.734;2023-04-10T04:15:00;5.60;99.90
57652;DHT22;43480;53.116;6.734;2023-04-10T04:17:26;5.60;99.90
57652;DHT22;43480;53.116;6.734;2023-04-10T04:19:51;5.60;99.90
57652;DHT22;43480;53.116;6.734;2023-04-10T04:22:19;5.60;99.90
57652;DHT22;43480;53.116;6.734;2023-04-10T04:24:45;5.50;99.90
57652;DHT22;43480;53.116;6.734;2023-04-10T04:27:10;5.60;99.90
57652;DHT22;43480;53.116;6.734;2023-04-10T04:29:36;5.60;99.90
57652;DHT22;43480;53.116;6.734;2023-04-10T04:32:01;5.60;99.90
57652;DHT22;43480;53.116;6.734;2023-04-10T04:34:27;5.70;99.90
57652;DHT22;43480;53.116;6.734;2023-04-10T04:36:52;5.80;99.90
57652;DHT22;43480;53.116;6.734;2023-04-10T04:39:18;5.80;99.90
57652;DHT22;43480;53.116;6.734;2023-04-10T04:41:43;5.90;99.90
57652;DHT22;43480;53.116;6.734;2023-04-10T04:44:09;6.00;99.90
57652;DHT22;43480;53.116;6.734;2023-04-10T04:46:34;6.10;99.90
57652;DHT22;43480;53.116;6.734;2023-04-10T04:49:00;6.30;99.90
57652;DHT22;43480;53.116;6.734;2023-04-10T04:51:25;6.40;99.90
57652;DHT22;43480;53.116;6.734;2023-04-10T04:53:51;6.40;99.90
57652;DHT22;43480;53.116;6.734;2023-04-10T04:56:17;6.50;99.90
57652;DHT22;43480;53.116;6.734;2023-04-10T04:58:43;6.60;99.90
57652;DHT22;43480;53.116;6.734;2023-04-10T05:01:08;6.60;99.90
57652;DHT22;43480;53.116;6.734;2023-04-10T05:03:33;6.70;99.90
57652;DHT22;43480;53.116;6.734;2023-04-10T05:05:59;6.70;99.90
57652;DHT22;43480;53.116;6.734;2023-04-10T05:08:25;6.80;99.90
57652;DHT22;43480;53.116;6.734;2023-04-10T05:10:50;6.90;99.90
57652;DHT22;43480;53.116;6.734;2023-04-10T05:13:16;6.90;99.90
57652;DHT22;43480;53.116;6.734;2023-04-10T05:15:44;6.90;99.90
57652;DHT22;43480;53.116;6.734;2023-04-10T05:18:10;6.90;99.90
57652;DHT22;43480;53.116;6.734;2023-04-10T05:20:37;6.90;99.90
57652;DHT22;43480;53.116;6.734;2023-04-10T05:23:03;7.00;99.90
57652;DHT22;43480;53.116;6.734;2023-04-10T05:25:29;7.00;99.90
57652;DHT22;43480;53.116;6.734;2023-04-10T05:27:54;7.00;99.90
57652;DHT22;43480;53.116;6.734;2023-04-10T05:30:20;7.00;99.90
57652;DHT22;43480;53.116;6.734;2023-04-10T05:32:46;7.10;99.90
57652;DHT22;43480;53.116;6.734;2023-04-10T05:35:11;7.10;99.90
57652;DHT22;43480;53.116;6.734;2023-04-10T05:37:37;7.10;99.90
57652;DHT22;43480;53.116;6.734;2023-04-10T05:40:02;7.10;99.90
57652;DHT22;43480;53.116;6.734;2023-04-10T05:42:28;7.10;99.90
57652;DHT22;43480;53.116;6.734;2023-04-10T05:44:53;7.10;99.90
57652;DHT22;43480;53.116;6.734;2023-04-10T05:47:19;7.10;99.90
57652;DHT22;43480;53.116;6.734;2023-04-10T05:49:44;7.10;99.90
57652;DHT22;43480;53.116;6.734;2023-04-10T05:52:10;7.10;99.90
57652;DHT22;43480;53.116;6.734;2023-04-10T05:54:35;7.20;99.90
57652;DHT22;43480;53.116;6.734;2023-04-10T05:57:01;7.20;99.90
57652;DHT22;43480;53.116;6.734;2023-04-10T05:59:26;7.20;99.90
57652;DHT22;43480;53.116;6.734;2023-04-10T06:01:52;7.30;99.90
57652;DHT22;43480;53.116;6.734;2023-04-10T06:04:17;7.30;99.90
57652;DHT22;43480;53.116;6.734;2023-04-10T06:06:43;7.30;99.90
57652;DHT22;43480;53.116;6.734;2023-04-10T06:09:08;7.30;99.90
57652;DHT22;43480;53.116;6.734;2023-04-10T06:11:34;7.40;99.90
57652;DHT22;43480;53.116;6.734;2023-04-10T06:14:00;7.40;99.90
57652;DHT22;43480;53.116;6.734;2023-04-10T06:16:25;7.50;99.90
57652;DHT22;43480;53.116;6.734;2023-04-10T06:18:51;7.60;99.90
57652;DHT22;43480;53.116;6.734;2023-04-10T06:21:18;7.60;99.90
57652;DHT22;43480;53.116;6.734;2023-04-10T06:23:44;7.70;99.90
57652;DHT22;43480;53.116;6.734;2023-04-10T06:26:09;7.80;99.90
57652;DHT22;43480;53.116;6.734;2023-04-10T06:28:35;7.90;99.90
57652;DHT22;43480;53.116;6.734;2023-04-10T06:31:01;7.90;99.90
57652;DHT22;43480;53.116;6.734;2023-04-10T06:33:30;8.00;99.90
57652;DHT22;43480;53.116;6.734;2023-04-10T06:35:57;8.00;99.90
57652;DHT22;43480;53.116;6.734;2023-04-10T06:38:23;8.10;99.90
57652;DHT22;43480;53.116;6.734;2023-04-10T06:40:48;8.10;99.90
57652;DHT22;43480;53.116;6.734;2023-04-10T06:43:14;8.10;99.90
57652;DHT22;43480;53.116;6.734;2023-04-10T06:45:39;8.20;99.90
57652;DHT22;43480;53.116;6.734;2023-04-10T06:48:05;8.20;99.90
57652;DHT22;43480;53.116;6.734;2023-04-10T06:50:31;8.20;99.90
57652;DHT22;43480;53.116;6.734;2023-04-10T06:52:56;8.30;99.90
57652;DHT22;43480;53.116;6.734;2023-04-10T06:55:27;8.40;99.90
57652;DHT22;43480;53.116;6.734;2023-04-10T06:57:52;8.40;99.90
57652;DHT22;43480;53.116;6.734;2023-04-10T07:00:19;8.50;99.90
57652;DHT22;43480;53.116;6.734;2023-04-10T07:02:45;8.60;99.90
57652;DHT22;43480;53.116;6.734;2023-04-10T07:05:11;8.60;99.90
57652;DHT22;43480;53.116;6.734;2023-04-10T07:07:36;8.70;99.90
57652;DHT22;43480;53.116;6.734;2023-04-10T07:10:02;8.70;99.90
57652;DHT22;43480;53.116;6.734;2023-04-10T07:12:28;8.80;99.90
57652;DHT22;43480;53.116;6.734;2023-04-10T07:14:53;8.80;99.90
57652;DHT22;43480;53.116;6.734;2023-04-10T07:17:19;8.90;99.90
57652;DHT22;43480;53.116;6.734;2023-04-10T07:19:44;8.90;99.90
57652;DHT22;43480;53.116;6.734;2023-04-10T07:22:10;8.90;99.90
57652;DHT22;43480;53.116;6.734;2023-04-10T07:24:35;9.00;99.90
57652;DHT22;43480;53.116;6.734;2023-04-10T07:27:01;9.00;99.90
57652;DHT22;43480;53.116;6.734;2023-04-10T07:29:27;9.00;99.90
57652;DHT22;43480;53.116;6.734;2023-04-10T07:31:53;9.10;99.90
57652;DHT22;43480;53.116;6.734;2023-04-10T07:34:18;9.20;99.90
57652;DHT22;43480;53.116;6.734;2023-04-10T07:36:44;9.30;99.90
57652;DHT22;43480;53.116;6.734;2023-04-10T07:39:09;9.30;99.90
57652;DHT22;43480;53.116;6.734;2023-04-10T07:41:35;9.40;99.90
57652;DHT22;43480;53.116;6.734;2023-04-10T07:44:01;9.50;99.90
57652;DHT22;43480;53.116;6.734;2023-04-10T07:46:26;9.50;99.90
57652;DHT22;43480;53.116;6.734;2023-04-10T07:48:52;9.60;99.90
57652;DHT22;43480;53.116;6.734;2023-04-10T07:51:19;9.80;99.90
57652;DHT22;43480;53.116;6.734;2023-04-10T07:53:45;9.90;99.90
57652;DHT22;43480;53.116;6.734;2023-04-10T07:56:14;10.10;99.90
57652;DHT22;43480;53.116;6.734;2023-04-10T07:58:40;10.20;99.90
57652;DHT22;43480;53.116;6.734;2023-04-10T08:01:05;10.30;99.90
57652;DHT22;43480;53.116;6.734;2023-04-10T08:03:36;10.50;99.90
57652;DHT22;43480;53.116;6.734;2023-04-10T08:06:01;10.60;99.90
57652;DHT22;43480;53.116;6.734;2023-04-10T08:08:27;10.80;99.90
57652;DHT22;43480;53.116;6.734;2023-04-10T08:10:52;10.90;99.90
57652;DHT22;43480;53.116;6.734;2023-04-10T08:13:18;11.10;99.90
57652;DHT22;43480;53.116;6.734;2023-04-10T08:15:43;11.20;99.90
57652;DHT22;43480;53.116;6.734;2023-04-10T08:18:09;11.30;99.90
57652;DHT22;43480;53.116;6.734;2023-04-10T08:20:34;11.50;99.90
57652;DHT22;43480;53.116;6.734;2023-04-10T08:23:01;11.60;99.90
57652;DHT22;43480;53.116;6.734;2023-04-10T08:25:27;11.70;99.90
57652;DHT22;43480;53.116;6.734;2023-04-10T08:27:52;11.90;99.90
57652;DHT22;43480;53.116;6.734;2023-04-10T08:30:18;12.00;99.90
57652;DHT22;43480;53.116;6.734;2023-04-10T08:32:43;12.00;99.90
57652;DHT22;43480;53.116;6.734;2023-04-10T08:35:09;12.10;99.90
57652;DHT22;43480;53.116;6.734;2023-04-10T08:37:34;12.30;99.90
57652;DHT22;43480;53.116;6.734;2023-04-10T08:40:00;12.40;99.90
57652;DHT22;43480;53.116;6.734;2023-04-10T08:42:25;12.50;99.90
57652;DHT22;43480;53.116;6.734;2023-04-10T08:44:51;12.60;99.90
57652;DHT22;43480;53.116;6.734;2023-04-10T08:47:18;12.70;99.90
57652;DHT22;43480;53.116;6.734;2023-04-10T08:52:14;12.80;99.90
57652;DHT22;43480;53.116;6.734;2023-04-10T08:54:40;12.90;99.90
57652;DHT22;43480;53.116;6.734;2023-04-10T08:57:07;13.20;99.90
57652;DHT22;43480;53.116;6.734;2023-04-10T08:59:38;13.30;99.90
57652;DHT22;43480;53.116;6.734;2023-04-10T09:02:03;13.40;99.90
57652;DHT22;43480;53.116;6.734;2023-04-10T09:04:30;13.40;97.80
57652;DHT22;43480;53.116;6.734;2023-04-10T09:06:56;13.30;99.90
57652;DHT22;43480;53.116;6.734;2023-04-10T09:09:21;13.40;99.90
57652;DHT22;43480;53.116;6.734;2023-04-10T09:14:31;13.60;95.50
57652;DHT22;43480;53.116;6.734;2023-04-10T09:17:10;13.70;97.40
57652;DHT22;43480;53.116;6.734;2023-04-10T09:19:36;13.70;99.40
57652;DHT22;43480;53.116;6.734;2023-04-10T09:22:02;13.80;99.90
57652;DHT22;43480;53.116;6.734;2023-04-10T09:24:27;13.80;98.60
57652;DHT22;43480;53.116;6.734;2023-04-10T09:26:53;14.00;99.90
57652;DHT22;43480;53.116;6.734;2023-04-10T09:29:19;14.20;99.90
57652;DHT22;43480;53.116;6.734;2023-04-10T09:31:44;14.30;94.50
57652;DHT22;43480;53.116;6.734;2023-04-10T09:36:39;14.70;92.00
57652;DHT22;43480;53.116;6.734;2023-04-10T09:39:08;14.70;86.90
57652;DHT22;43480;53.116;6.734;2023-04-10T09:41:34;14.70;89.60
57652;DHT22;43480;53.116;6.734;2023-04-10T09:46:32;14.60;82.70
57652;DHT22;43480;53.116;6.734;2023-04-10T09:48:58;14.60;85.70
57652;DHT22;43480;53.116;6.734;2023-04-10T09:51:30;14.60;85.30
57652;DHT22;43480;53.116;6.734;2023-04-10T09:53:56;14.70;90.60
57652;DHT22;43480;53.116;6.734;2023-04-10T09:56:21;14.90;88.00
57652;DHT22;43480;53.116;6.734;2023-04-10T09:58:47;15.10;88.70
57652;DHT22;43480;53.116;6.734;2023-04-10T10:01:13;15.30;81.90
57652;DHT22;43480;53.116;6.734;2023-04-10T10:03:39;15.30;82.20
57652;DHT22;43480;53.116;6.734;2023-04-10T10:06:05;15.30;81.10
57652;DHT22;43480;53.116;6.734;2023-04-10T10:08:31;15.30;81.20
57652;DHT22;43480;53.116;6.734;2023-04-10T10:10:57;15.30;80.40
57652;DHT22;43480;53.116;6.734;2023-04-10T10:13:33;15.40;83.70
57652;DHT22;43480;53.116;6.734;2023-04-10T10:18:40;15.60;80.50
57652;DHT22;43480;53.116;6.734;2023-04-10T10:21:08;15.80;81.60
57652;DHT22;43480;53.116;6.734;2023-04-10T10:23:34;15.80;78.10
57652;DHT22;43480;53.116;6.734;2023-04-10T10:26:00;15.90;79.80
57652;DHT22;43480;53.116;6.734;2023-04-10T10:28:29;15.90;78.60
57652;DHT22;43480;53.116;6.734;2023-04-10T10:30:55;15.90;75.60
57652;DHT22;43480;53.116;6.734;2023-04-10T10:33:21;15.90;76.60
57652;DHT22;43480;53.116;6.734;2023-04-10T10:35:47;16.10;77.60
57652;DHT22;43480;53.116;6.734;2023-04-10T10:38:14;16.20;79.50
57652;DHT22;43480;53.116;6.734;2023-04-10T10:40:48;16.30;78.20
57652;DHT22;43480;53.116;6.734;2023-04-10T10:45:49;16.40;74.80
57652;DHT22;43480;53.116;6.734;2023-04-10T10:48:16;16.30;75.70
57652;DHT22;43480;53.116;6.734;2023-04-10T10:56:31;16.30;76.00
57652;DHT22;43480;53.116;6.734;2023-04-10T10:58:51;16.30;73.50
57652;DHT22;43480;53.116;6.734;2023-04-10T11:01:18;16.20;74.90
57652;DHT22;43480;53.116;6.734;2023-04-10T11:03:44;16.20;73.50
57652;DHT22;43480;53.116;6.734;2023-04-10T11:06:11;16.10;73.70
57652;DHT22;43480;53.116;6.734;2023-04-10T11:11:14;16.00;75.10
57652;DHT22;43480;53.116;6.734;2023-04-10T11:13:41;16.00;75.40
57652;DHT22;43480;53.116;6.734;2023-04-10T11:16:07;16.00;74.30
57652;DHT22;43480;53.116;6.734;2023-04-10T11:21:10;16.20;73.30
57652;DHT22;43480;53.116;6.734;2023-04-10T11:26:34;16.40;75.90
57652;DHT22;43480;53.116;6.734;2023-04-10T11:29:00;16.50;74.20
57652;DHT22;43480;53.116;6.734;2023-04-10T11:31:26;16.40;72.80
57652;DHT22;43480;53.116;6.734;2023-04-10T11:36:20;16.40;75.40
57652;DHT22;43480;53.116;6.734;2023-04-10T11:41:51;16.20;73.00
57652;DHT22;43480;53.116;6.734;2023-04-10T11:46:51;16.20;73.00
57652;DHT22;43480;53.116;6.734;2023-04-10T11:49:24;16.30;73.80
57652;DHT22;43480;53.116;6.734;2023-04-10T11:51:50;16.30;74.20
57652;DHT22;43480;53.116;6.734;2023-04-10T11:54:20;16.40;74.70
57652;DHT22;43480;53.116;6.734;2023-04-10T11:57:05;16.30;71.80
57652;DHT22;43480;53.116;6.734;2023-04-10T11:59:33;16.30;72.20
57652;DHT22;43480;53.116;6.734;2023-04-10T12:02:05;16.20;72.70
57652;DHT22;43480;53.116;6.734;2023-04-10T12:04:31;16.20;73.30
57652;DHT22;43480;53.116;6.734;2023-04-10T12:06:57;16.30;72.60
57652;DHT22;43480;53.116;6.734;2023-04-10T12:09:23;16.30;74.70
57652;DHT22;43480;53.116;6.734;2023-04-10T12:11:58;16.40;75.40
57652;DHT22;43480;53.116;6.734;2023-04-10T12:14:37;16.50;73.30
57652;DHT22;43480;53.116;6.734;2023-04-10T12:17:04;16.70;73.70
57652;DHT22;43480;53.116;6.734;2023-04-10T12:19:30;16.90;71.90
57652;DHT22;43480;53.116;6.734;2023-04-10T12:21:56;17.10;72.00
57652;DHT22;43480;53.116;6.734;2023-04-10T12:27:17;17.30;70.00
57652;DHT22;43480;53.116;6.734;2023-04-10T12:29:44;17.50;72.00
57652;DHT22;43480;53.116;6.734;2023-04-10T12:32:09;17.70;72.20
57652;DHT22;43480;53.116;6.734;2023-04-10T12:34:35;18.00;70.50
57652;DHT22;43480;53.116;6.734;2023-04-10T12:37:01;18.10;69.50
57652;DHT22;43480;53.116;6.734;2023-04-10T12:39:27;18.20;69.90
57652;DHT22;43480;53.116;6.734;2023-04-10T12:41:53;18.50;68.50
57652;DHT22;43480;53.116;6.734;2023-04-10T12:44:34;18.60;67.60
57652;DHT22;43480;53.116;6.734;2023-04-10T12:47:13;18.40;67.50
57652;DHT22;43480;53.116;6.734;2023-04-10T12:49:39;18.10;69.00
57652;DHT22;43480;53.116;6.734;2023-04-10T12:52:04;17.90;68.00
57652;DHT22;43480;53.116;6.734;2023-04-10T12:56:56;17.60;70.40
57652;DHT22;43480;53.116;6.734;2023-04-10T12:59:22;17.50;69.50
57652;DHT22;43480;53.116;6.734;2023-04-10T13:01:48;17.30;70.40
57652;DHT22;43480;53.116;6.734;2023-04-10T13:04:13;17.10;70.00
57652;DHT22;43480;53.116;6.734;2023-04-10T13:06:45;17.00;69.30
57652;DHT22;43480;53.116;6.734;2023-04-10T13:09:11;16.90;71.20
57652;DHT22;43480;53.116;6.734;2023-04-10T13:11:37;16.80;71.50
57652;DHT22;43480;53.116;6.734;2023-04-10T13:14:03;16.70;71.30
57652;DHT22;43480;53.116;6.734;2023-04-10T13:16:28;16.70;70.40
57652;DHT22;43480;53.116;6.734;2023-04-10T13:18:54;16.70;71.80
57652;DHT22;43480;53.116;6.734;2023-04-10T13:21:20;16.60;73.00
57652;DHT22;43480;53.116;6.734;2023-04-10T13:23:49;16.70;73.80
57652;DHT22;43480;53.116;6.734;2023-04-10T13:26:15;16.70;73.70
57652;DHT22;43480;53.116;6.734;2023-04-10T13:28:40;16.60;72.50
57652;DHT22;43480;53.116;6.734;2023-04-10T13:31:06;16.70;73.80
57652;DHT22;43480;53.116;6.734;2023-04-10T13:33:31;16.70;72.50
57652;DHT22;43480;53.116;6.734;2023-04-10T13:35:57;16.80;72.70
57652;DHT22;43480;53.116;6.734;2023-04-10T13:38:22;16.70;72.90
57652;DHT22;43480;53.116;6.734;2023-04-10T13:40:48;16.70;73.80
57652;DHT22;43480;53.116;6.734;2023-04-10T13:43:13;16.70;74.30
57652;DHT22;43480;53.116;6.734;2023-04-10T13:45:39;16.70;75.10
57652;DHT22;43480;53.116;6.734;2023-04-10T13:48:04;16.70;75.00
57652;DHT22;43480;53.116;6.734;2023-04-10T13:50:32;16.60;73.90
57652;DHT22;43480;53.116;6.734;2023-04-10T13:52:57;16.60;73.60
57652;DHT22;43480;53.116;6.734;2023-04-10T13:55:23;16.60;74.00
57652;DHT22;43480;53.116;6.734;2023-04-10T13:57:49;16.50;75.50
57652;DHT22;43480;53.116;6.734;2023-04-10T14:00:14;16.50;73.90
57652;DHT22;43480;53.116;6.734;2023-04-10T14:02:40;16.40;74.20
57652;DHT22;43480;53.116;6.734;2023-04-10T14:05:06;16.30;73.60
57652;DHT22;43480;53.116;6.734;2023-04-10T14:07:31;16.30;73.80
57652;DHT22;43480;53.116;6.734;2023-04-10T14:09:58;16.20;74.90
57652;DHT22;43480;53.116;6.734;2023-04-10T14:12:23;16.20;74.50
57652;DHT22;43480;53.116;6.734;2023-04-10T14:14:49;16.10;75.00
57652;DHT22;43480;53.116;6.734;2023-04-10T14:17:14;16.10;74.90
57652;DHT22;43480;53.116;6.734;2023-04-10T14:19:40;16.10;75.30
57652;DHT22;43480;53.116;6.734;2023-04-10T14:22:06;16.00;75.50
57652;DHT22;43480;53.116;6.734;2023-04-10T14:24:32;16.00;76.00
57652;DHT22;43480;53.116;6.734;2023-04-10T14:26:57;15.90;77.30
57652;DHT22;43480;53.116;6.734;2023-04-10T14:29:25;15.90;76.20
57652;DHT22;43480;53.116;6.734;2023-04-10T14:31:51;15.80;76.10
57652;DHT22;43480;53.116;6.734;2023-04-10T14:34:17;15.80;77.10
57652;DHT22;43480;53.116;6.734;2023-04-10T14:36:42;15.80;77.70
57652;DHT22;43480;53.116;6.734;2023-04-10T14:39:08;15.70;77.60
57652;DHT22;43480;53.116;6.734;2023-04-10T14:41:33;15.70;78.80
57652;DHT22;43480;53.116;6.734;2023-04-10T14:43:59;15.60;79.30
57652;DHT22;43480;53.116;6.734;2023-04-10T14:46:24;15.60;78.10
57652;DHT22;43480;53.116;6.734;2023-04-10T14:48:50;15.50;80.20
57652;DHT22;43480;53.116;6.734;2023-04-10T14:51:15;15.50;79.30
57652;DHT22;43480;53.116;6.734;2023-04-10T14:53:41;15.50;81.70
57652;DHT22;43480;53.116;6.734;2023-04-10T14:56:13;15.40;82.10
57652;DHT22;43480;53.116;6.734;2023-04-10T14:58:39;15.30;80.70
57652;DHT22;43480;53.116;6.734;2023-04-10T15:01:08;15.30;79.30
57652;DHT22;43480;53.116;6.734;2023-04-10T15:03:34;15.30;80.40
57652;DHT22;43480;53.116;6.734;2023-04-10T15:06:00;15.30;80.80
57652;DHT22;43480;53.116;6.734;2023-04-10T15:08:25;15.20;80.20
57652;DHT22;43480;53.116;6.734;2023-04-10T15:10:51;15.20;80.90
57652;DHT22;43480;53.116;6.734;2023-04-10T15:13:19;15.20;82.60
57652;DHT22;43480;53.116;6.734;2023-04-10T15:15:45;15.10;84.50
57652;DHT22;43480;53.116;6.734;2023-04-10T15:18:12;15.00;84.10
57652;DHT22;43480;53.116;6.734;2023-04-10T15:20:38;15.00;90.10
57652;DHT22;43480;53.116;6.734;2023-04-10T15:23:03;14.90;99.90
57652;DHT22;43480;53.116;6.734;2023-04-10T15:25:31;14.80;99.90
57652;DHT22;43480;53.116;6.734;2023-04-10T15:27:56;14.70;99.90
57652;DHT22;43480;53.116;6.734;2023-04-10T15:30:22;14.60;99.90
57652;DHT22;43480;53.116;6.734;2023-04-10T15:32:47;14.60;99.90
57652;DHT22;43480;53.116;6.734;2023-04-10T15:35:13;14.60;99.90
57652;DHT22;43480;53.116;6.734;2023-04-10T15:37:38;14.50;99.90
57652;DHT22;43480;53.116;6.734;2023-04-10T15:40:04;14.40;99.90
57652;DHT22;43480;53.116;6.734;2023-04-10T15:42:30;14.20;99.90
57652;DHT22;43480;53.116;6.734;2023-04-10T15:44:56;14.00;99.90
57652;DHT22;43480;53.116;6.734;2023-04-10T15:47:21;13.90;99.90
57652;DHT22;43480;53.116;6.734;2023-04-10T15:49:47;13.70;99.90
57652;DHT22;43480;53.116;6.734;2023-04-10T15:52:12;13.50;99.90
57652;DHT22;43480;53.116;6.734;2023-04-10T15:54:38;13.40;99.90
57652;DHT22;43480;53.116;6.734;2023-04-10T15:57:04;13.40;99.90
57652;DHT22;43480;53.116;6.734;2023-04-10T15:59:30;13.30;99.90
57652;DHT22;43480;53.116;6.734;2023-04-10T16:01:59;13.30;99.90
57652;DHT22;43480;53.116;6.734;2023-04-10T16:04:25;13.30;99.90
57652;DHT22;43480;53.116;6.734;2023-04-10T16:06:50;13.30;99.90
57652;DHT22;43480;53.116;6.734;2023-04-10T16:09:16;13.20;99.90
57652;DHT22;43480;53.116;6.734;2023-04-10T16:11:42;13.20;99.90
57652;DHT22;43480;53.116;6.734;2023-04-10T16:14:07;13.10;99.90
57652;DHT22;43480;53.116;6.734;2023-04-10T16:16:33;13.10;99.90
57652;DHT22;43480;53.116;6.734;2023-04-10T16:18:58;13.00;99.90